createdAt,value
2019-01-31T00:00:37.894Z,1.57
2019-01-31T00:03:35.735Z,1.32
2019-01-31T00:07:04.456Z,1.30
2019-01-31T00:09:56.492Z,1.80
2019-01-31T00:13:18.978Z,1.65
2019-01-31T00:16:24.124Z,2.00
2019-01-31T00:19:31.615Z,2.15
2019-01-31T00:22:35.294Z,2.67
2019-01-31T00:25:20.690Z,2.70
2019-01-31T00:28:39.032Z,1.92
2019-01-31T00:31:31.245Z,2.60
2019-01-31T00:34:46.544Z,2.80
2019-01-31T00:38:04.840Z,2.35
2019-01-31T00:40:56.057Z,2.72
2019-01-31T00:43:43.025Z,2.22
2019-01-31T00:47:07.844Z,1.98
2019-01-31T00:49:58.879Z,2.98
2019-01-31T00:52:59.468Z,2.40
2019-01-31T00:55:54.692Z,2.60
2019-01-31T00:58:56.506Z,2.60
2019-01-31T01:01:43.369Z,2.70
2019-01-31T01:04:24.705Z,2.60
2019-01-31T01:07:39.489Z,3.30
2019-01-31T01:10:37.456Z,2.70
2019-01-31T01:13:34.837Z,3.37
2019-01-31T01:16:38.976Z,3.40
2019-01-31T01:19:37.383Z,3.20
2019-01-31T01:22:47.126Z,2.50
2019-01-31T01:25:42.010Z,3.00
2019-01-31T01:28:52.292Z,3.20
2019-01-31T01:31:26.531Z,2.72
2019-01-31T01:34:24.840Z,3.37
2019-01-31T01:37:44.317Z,2.10
2019-01-31T01:40:57.331Z,1.80
2019-01-31T01:43:57.697Z,1.95
2019-01-31T01:46:47.374Z,1.25
2019-01-31T01:49:44.103Z,0.93
2019-01-31T01:52:35.252Z,2.35
2019-01-31T01:55:47.477Z,2.20
2019-01-31T01:58:30.700Z,1.98
2019-01-31T02:01:44.069Z,2.12
2019-01-31T02:04:47.802Z,2.30
2019-01-31T02:07:30.916Z,3.20
2019-01-31T02:10:27.218Z,2.42
2019-01-31T02:13:58.777Z,2.83
2019-01-31T02:16:51.554Z,2.83
2019-01-31T02:19:56.568Z,2.40
2019-01-31T02:23:21.508Z,2.10
2019-01-31T02:26:10.325Z,2.05
2019-01-31T02:29:09.699Z,2.52
2019-01-31T02:31:54.085Z,2.37
2019-01-31T02:34:40.944Z,2.22
2019-01-31T02:37:31.289Z,1.90
2019-01-31T02:40:45.156Z,2.12
2019-01-31T02:43:44.725Z,2.40
2019-01-31T02:46:40.774Z,2.15
2019-01-31T02:49:35.211Z,1.27
2019-01-31T02:52:19.632Z,1.37
2019-01-31T02:55:29.681Z,1.70
2019-01-31T02:58:29.804Z,1.70
2019-01-31T03:01:24.156Z,1.47
2019-01-31T03:04:58.712Z,1.52
2019-01-31T03:07:40.572Z,2.00
2019-01-31T03:10:25.825Z,1.82
2019-01-31T03:13:23.722Z,2.10
2019-01-31T03:16:46.140Z,2.17
2019-01-31T03:19:55.401Z,2.50
2019-01-31T03:23:04.792Z,2.05
2019-01-31T03:26:39.267Z,2.02
2019-01-31T03:29:46.242Z,2.08
2019-01-31T03:33:06.997Z,3.20
2019-01-31T03:36:22.143Z,2.70
2019-01-31T03:39:13.441Z,1.90
2019-01-31T03:42:08.321Z,1.80
2019-01-31T03:45:21.178Z,2.62
2019-01-31T03:48:40.589Z,2.50
2019-01-31T03:51:29.742Z,2.05
2019-01-31T03:54:39.002Z,1.82
2019-01-31T03:57:22.674Z,2.20
2019-01-31T04:00:17.998Z,2.00
2019-01-31T04:03:11.161Z,1.20
2019-01-31T04:05:47.912Z,1.80
2019-01-31T04:08:16.901Z,2.20
2019-01-31T04:10:45.999Z,2.65
2019-01-31T04:13:15.208Z,2.40
2019-01-31T04:15:44.200Z,2.15
2019-01-31T04:18:13.280Z,2.27
2019-01-31T04:20:42.618Z,2.20
2019-01-31T04:23:11.673Z,2.45
2019-01-31T04:25:40.717Z,2.10
2019-01-31T04:28:09.800Z,2.25
2019-01-31T04:30:39.177Z,2.50
2019-01-31T04:33:08.221Z,2.40
2019-01-31T04:35:37.211Z,2.90
2019-01-31T04:38:06.235Z,2.50
2019-01-31T04:40:35.282Z,2.70
2019-01-31T04:43:04.321Z,2.42
2019-01-31T04:45:33.385Z,3.10
2019-01-31T04:48:02.422Z,2.55
2019-01-31T04:50:31.791Z,3.08
2019-01-31T04:53:01.044Z,2.72
2019-01-31T04:55:30.071Z,2.70
2019-01-31T04:57:59.131Z,2.85
2019-01-31T05:00:28.481Z,2.50
2019-01-31T05:02:57.561Z,2.35
2019-01-31T05:05:26.647Z,2.72
2019-01-31T05:07:55.633Z,3.05
2019-01-31T05:10:24.605Z,3.00
2019-01-31T05:12:53.687Z,3.08
2019-01-31T05:15:22.793Z,3.00
2019-01-31T05:17:51.883Z,2.55
2019-01-31T05:20:20.914Z,3.27
2019-01-31T05:22:49.879Z,2.83
2019-01-31T05:25:18.924Z,3.08
2019-01-31T05:27:47.965Z,3.05
2019-01-31T05:30:17.203Z,2.52
2019-01-31T05:32:46.194Z,2.37
2019-01-31T05:35:15.257Z,2.50
2019-01-31T05:37:44.267Z,3.20
2019-01-31T05:40:15.998Z,2.87
2019-01-31T05:42:45.165Z,3.05
2019-01-31T05:45:16.316Z,3.67
2019-01-31T05:47:45.360Z,2.52
2019-01-31T05:50:16.289Z,3.10
2019-01-31T05:52:45.500Z,3.42
2019-01-31T05:55:15.996Z,3.00
2019-01-31T05:57:45.166Z,3.50
2019-01-31T06:00:21.098Z,3.90
2019-01-31T06:02:50.152Z,3.42
2019-01-31T06:05:19.188Z,3.65
2019-01-31T06:07:48.329Z,3.77
2019-01-31T06:10:17.295Z,3.25
2019-01-31T06:12:46.346Z,2.30
2019-01-31T06:15:15.754Z,3.00
2019-01-31T06:17:44.749Z,3.35
2019-01-31T06:20:16.852Z,2.95
2019-01-31T06:22:46.001Z,1.82
2019-01-31T06:25:14.973Z,1.92
2019-01-31T06:27:44.038Z,1.72
2019-01-31T06:30:14.716Z,1.42
2019-01-31T06:32:43.706Z,0.93
2019-01-31T06:35:13.037Z,2.08
2019-01-31T06:37:42.166Z,2.60
2019-01-31T06:40:13.798Z,2.50
2019-01-31T06:42:42.935Z,1.60
2019-01-31T06:45:14.620Z,2.80
2019-01-31T06:47:43.708Z,2.52
2019-01-31T06:50:12.677Z,3.70
2019-01-31T06:52:41.696Z,2.90
2019-01-31T06:55:10.841Z,3.05
2019-01-31T06:57:39.878Z,3.83
2019-01-31T07:00:16.176Z,3.85
2019-01-31T07:02:46.531Z,3.67
2019-01-31T07:05:15.496Z,3.05
2019-01-31T07:07:44.765Z,2.40
2019-01-31T07:10:21.548Z,2.45
2019-01-31T07:12:50.500Z,2.85
2019-01-31T07:15:19.393Z,2.17
2019-01-31T07:17:49.919Z,1.95
2019-01-31T07:20:20.096Z,1.57
2019-01-31T07:22:49.132Z,2.50
2019-01-31T07:25:20.397Z,0.60
2019-01-31T07:27:49.583Z,2.37
2019-01-31T07:30:19.841Z,1.20
2019-01-31T07:32:49.020Z,2.10
2019-01-31T07:35:18.647Z,2.08
2019-01-31T07:37:47.759Z,1.50
2019-01-31T07:40:20.006Z,1.07
2019-01-31T07:42:49.139Z,2.00
2019-01-31T07:45:37.857Z,1.75
2019-01-31T07:48:06.945Z,1.37
2019-01-31T07:50:35.946Z,2.47
2019-01-31T07:53:05.157Z,3.20
2019-01-31T07:55:34.118Z,1.90
2019-01-31T07:58:03.225Z,1.47
2019-01-31T08:00:32.264Z,2.40
2019-01-31T08:03:01.308Z,1.72
2019-01-31T08:05:30.389Z,1.40
2019-01-31T08:07:59.537Z,1.55
2019-01-31T08:10:38.324Z,1.85
2019-01-31T08:13:07.546Z,2.47
2019-01-31T08:15:36.720Z,2.35
2019-01-31T08:18:05.802Z,1.30
2019-01-31T08:20:34.836Z,2.20
2019-01-31T08:23:03.705Z,2.25
2019-01-31T08:25:32.479Z,1.70
2019-01-31T08:28:01.330Z,1.50
2019-01-31T08:30:32.646Z,1.80
2019-01-31T08:33:01.462Z,1.95
2019-01-31T08:35:30.297Z,1.45
2019-01-31T08:37:59.158Z,1.65
2019-01-31T08:40:27.940Z,3.10
2019-01-31T08:42:57.464Z,1.72
2019-01-31T08:45:26.335Z,2.40
2019-01-31T08:47:55.434Z,2.27
2019-01-31T08:50:27.565Z,1.95
2019-01-31T08:52:56.188Z,1.55
2019-01-31T08:55:25.324Z,1.40
2019-01-31T08:57:54.447Z,2.02
2019-01-31T09:00:25.616Z,1.62
2019-01-31T09:02:54.865Z,2.20
2019-01-31T09:05:23.968Z,1.42
2019-01-31T09:07:53.144Z,0.93
2019-01-31T09:10:25.751Z,1.60
2019-01-31T09:12:54.899Z,1.90
2019-01-31T09:15:26.355Z,1.85
2019-01-31T09:17:55.498Z,1.32
2019-01-31T09:20:57.859Z,2.35
2019-01-31T09:23:55.889Z,1.00
2019-01-31T09:27:36.737Z,2.05
2019-01-31T09:30:46.177Z,2.00
2019-01-31T09:33:43.160Z,2.60
2019-01-31T09:36:45.043Z,1.90
2019-01-31T09:40:10.401Z,1.40
2019-01-31T09:43:04.618Z,2.02
2019-01-31T09:46:13.941Z,2.90
2019-01-31T09:48:55.977Z,1.47
2019-01-31T09:51:59.621Z,1.82
2019-01-31T09:55:09.193Z,2.60
2019-01-31T09:58:18.204Z,2.70
2019-01-31T10:01:43.709Z,2.72
2019-01-31T10:04:59.908Z,2.08
2019-01-31T10:07:57.483Z,1.35
2019-01-31T10:10:56.789Z,2.33
2019-01-31T10:13:52.127Z,1.23
2019-01-31T10:17:13.815Z,2.90
2019-01-31T10:20:32.818Z,1.97
2019-01-31T10:23:18.064Z,1.80
2019-01-31T10:26:18.665Z,2.50
2019-01-31T10:29:24.213Z,1.60
2019-01-31T10:32:31.542Z,1.40
2019-01-31T10:35:17.797Z,4.17
2019-01-31T10:38:05.591Z,1.90
2019-01-31T10:41:11.708Z,1.20
2019-01-31T10:44:02.501Z,2.13
2019-01-31T10:47:10.848Z,0.87
2019-01-31T10:50:42.165Z,1.00
2019-01-31T10:53:49.109Z,1.70
2019-01-31T10:57:09.184Z,2.27
2019-01-31T11:00:37.589Z,1.70
2019-01-31T11:03:36.556Z,1.50
2019-01-31T11:06:50.931Z,1.50
2019-01-31T11:09:49.840Z,1.10
2019-01-31T11:13:00.850Z,1.20
2019-01-31T11:16:01.754Z,1.33
2019-01-31T11:18:40.099Z,1.77
2019-01-31T11:21:41.982Z,1.40
2019-01-31T11:24:42.032Z,1.90
2019-01-31T11:27:45.464Z,1.30
2019-01-31T11:30:31.205Z,2.13
2019-01-31T11:33:38.780Z,1.37
2019-01-31T11:36:37.649Z,1.23
2019-01-31T11:39:32.873Z,1.30
2019-01-31T11:42:31.926Z,1.30
2019-01-31T11:45:54.000Z,1.30
2019-01-31T11:49:09.817Z,1.80
2019-01-31T11:52:25.046Z,1.13
2019-01-31T11:55:28.361Z,1.23
2019-01-31T11:58:37.332Z,1.20
2019-01-31T12:01:07.636Z,1.40
2019-01-31T12:03:38.382Z,1.03
2019-01-31T12:06:07.494Z,0.80
2019-01-31T12:08:38.417Z,1.53
2019-01-31T12:11:07.411Z,1.37
2019-01-31T12:13:36.481Z,1.20
2019-01-31T12:16:07.052Z,1.00
2019-01-31T12:18:35.960Z,1.60
2019-01-31T12:21:05.006Z,1.60
2019-01-31T12:23:34.069Z,1.13
2019-01-31T12:26:03.176Z,1.53
2019-01-31T12:28:33.642Z,0.80
2019-01-31T12:31:02.707Z,1.50
2019-01-31T12:33:33.645Z,1.00
2019-01-31T12:36:02.828Z,1.57
2019-01-31T12:38:36.948Z,1.20
2019-01-31T12:41:02.624Z,1.40
2019-01-31T12:43:35.208Z,1.50
2019-01-31T12:46:02.768Z,1.10
2019-01-31T12:48:31.919Z,1.50
2019-01-31T12:51:00.899Z,1.03
2019-01-31T12:53:30.204Z,0.93
2019-01-31T12:55:59.353Z,1.10
2019-01-31T12:58:33.826Z,0.97
2019-01-31T13:00:59.188Z,1.17
2019-01-31T13:03:28.409Z,1.10
2019-01-31T13:05:57.612Z,1.00
2019-01-31T13:08:26.777Z,1.10
2019-01-31T13:10:56.151Z,1.33
2019-01-31T13:13:25.209Z,0.87
2019-01-31T13:15:54.190Z,1.20
2019-01-31T13:18:23.925Z,1.10
2019-01-31T13:20:53.139Z,0.70
2019-01-31T13:23:22.136Z,0.90
2019-01-31T13:25:51.209Z,0.90
2019-01-31T13:28:21.195Z,1.23
2019-01-31T13:30:50.255Z,1.03
2019-01-31T13:33:19.307Z,0.80
2019-01-31T13:35:48.476Z,1.03
2019-01-31T13:38:17.530Z,0.90
2019-01-31T13:41:05.688Z,0.90
2019-01-31T13:43:57.751Z,0.90
2019-01-31T13:46:43.809Z,1.17
2019-01-31T13:49:31.963Z,1.30
2019-01-31T13:55:28.477Z,1.00
2019-01-31T13:58:16.695Z,1.03
2019-01-31T14:01:24.277Z,0.90
2019-01-31T14:04:12.548Z,0.97
2019-01-31T14:13:22.984Z,1.20
2019-01-31T14:16:04.439Z,0.90
2019-01-31T14:18:45.040Z,1.17
2019-01-31T14:21:25.987Z,1.37
2019-01-31T14:24:06.825Z,1.30
2019-01-31T14:26:47.469Z,1.27
2019-01-31T14:29:28.054Z,1.17
2019-01-31T14:32:08.488Z,1.20
2019-01-31T14:34:49.161Z,0.90
2019-01-31T14:37:30.397Z,3.10
2019-01-31T14:40:10.914Z,1.10
2019-01-31T14:42:51.635Z,1.03
2019-01-31T14:45:32.359Z,0.83
2019-01-31T14:48:13.189Z,1.47
2019-01-31T14:50:54.362Z,0.80
2019-01-31T14:53:35.144Z,0.83
2019-01-31T14:56:16.340Z,1.07
2019-01-31T14:58:45.466Z,1.50
2019-01-31T15:01:14.521Z,3.03
2019-01-31T15:03:43.571Z,3.13
2019-01-31T15:06:12.481Z,1.67
2019-01-31T15:08:41.865Z,1.37
2019-01-31T15:11:11.002Z,1.27
2019-01-31T15:13:40.085Z,1.30
2019-01-31T15:16:08.997Z,1.33
2019-01-31T15:18:38.005Z,1.00
2019-01-31T15:21:07.120Z,1.40
2019-01-31T15:23:36.177Z,1.17
2019-01-31T15:26:05.353Z,1.70
2019-01-31T15:28:34.418Z,1.50
2019-01-31T15:31:03.459Z,1.80
2019-01-31T15:33:32.567Z,1.40
2019-01-31T15:36:01.669Z,1.47
2019-01-31T15:38:30.654Z,2.03
2019-01-31T15:40:59.738Z,1.90
2019-01-31T15:43:28.820Z,1.77
2019-01-31T15:45:57.992Z,2.40
2019-01-31T15:48:26.908Z,1.90
2019-01-31T15:50:55.959Z,2.20
2019-01-31T15:53:25.025Z,1.60
2019-01-31T15:55:54.030Z,1.77
2019-01-31T15:58:23.095Z,2.40
2019-01-31T16:00:56.369Z,2.70
2019-01-31T16:03:26.452Z,1.90
2019-01-31T16:05:55.884Z,1.80
2019-01-31T16:08:25.213Z,1.97
2019-01-31T16:10:54.142Z,1.50
2019-01-31T16:13:23.322Z,1.90
2019-01-31T16:15:52.426Z,1.93
2019-01-31T16:18:21.483Z,2.40
2019-01-31T16:20:50.584Z,1.43
2019-01-31T16:23:19.693Z,2.27
2019-01-31T16:25:49.991Z,2.20
2019-01-31T16:28:19.068Z,2.13
2019-01-31T16:30:48.192Z,1.57
2019-01-31T16:33:17.273Z,2.10
2019-01-31T16:35:47.422Z,2.83
2019-01-31T16:38:16.406Z,2.07
2019-01-31T16:40:46.604Z,2.80
2019-01-31T16:43:15.765Z,2.90
2019-01-31T16:45:46.212Z,1.33
2019-01-31T16:48:16.456Z,1.73
2019-01-31T16:50:45.592Z,2.70
2019-01-31T16:53:14.712Z,2.40
2019-01-31T16:55:43.739Z,2.30
2019-01-31T16:58:12.854Z,2.40
2019-01-31T17:00:41.981Z,2.60
2019-01-31T17:03:13.045Z,2.70
2019-01-31T17:05:41.837Z,2.70
2019-01-31T17:08:10.903Z,2.87
2019-01-31T17:10:39.861Z,3.03
2019-01-31T17:13:08.942Z,3.10
2019-01-31T17:15:37.958Z,2.50
2019-01-31T17:18:07.743Z,3.57
2019-01-31T17:20:44.684Z,2.80
2019-01-31T17:23:15.213Z,2.58
2019-01-31T17:25:44.318Z,4.97
2019-01-31T17:28:13.393Z,4.83
2019-01-31T17:30:42.485Z,4.42
2019-01-31T17:33:11.611Z,4.05
2019-01-31T17:35:40.719Z,2.27
2019-01-31T17:38:09.927Z,2.65
2019-01-31T17:40:40.640Z,2.30
2019-01-31T17:43:11.114Z,3.30
2019-01-31T17:45:41.553Z,2.20
2019-01-31T17:48:17.503Z,2.10
2019-01-31T17:50:47.118Z,2.83
2019-01-31T17:53:16.233Z,2.05
2019-01-31T17:55:45.378Z,3.17
2019-01-31T17:58:14.461Z,3.15
2019-01-31T18:00:48.488Z,3.30
2019-01-31T18:03:17.548Z,2.25
2019-01-31T18:05:46.609Z,1.87
2019-01-31T18:08:15.860Z,2.67
2019-01-31T18:10:44.925Z,2.12
2019-01-31T18:13:14.038Z,1.93
2019-01-31T18:15:43.125Z,2.72
2019-01-31T18:18:12.178Z,2.12
2019-01-31T18:20:41.469Z,3.25
2019-01-31T18:23:10.462Z,3.22
2019-01-31T18:25:39.610Z,1.75
2019-01-31T18:28:08.840Z,3.10
2019-01-31T18:30:38.033Z,2.65
2019-01-31T18:33:07.123Z,3.17
2019-01-31T18:35:36.188Z,3.77
2019-01-31T18:38:07.177Z,4.70
2019-01-31T18:40:36.249Z,3.72
2019-01-31T18:43:06.759Z,3.75
2019-01-31T18:45:35.878Z,2.83
2019-01-31T18:48:06.141Z,4.85
2019-01-31T18:50:37.770Z,4.78
2019-01-31T18:53:07.069Z,4.40
2019-01-31T18:55:36.149Z,3.70
2019-01-31T18:58:05.589Z,3.85
2019-01-31T19:00:43.065Z,5.50
2019-01-31T19:03:12.389Z,3.80
2019-01-31T19:05:41.670Z,3.42
2019-01-31T19:08:10.892Z,2.52
2019-01-31T19:10:43.887Z,2.05
2019-01-31T19:13:10.819Z,2.87
2019-01-31T19:15:39.900Z,4.90
2019-01-31T19:18:09.177Z,4.12
2019-01-31T19:20:38.329Z,2.55
2019-01-31T19:23:08.294Z,4.72
2019-01-31T19:25:37.361Z,4.05
2019-01-31T19:28:07.316Z,3.55
2019-01-31T19:30:40.477Z,4.35
2019-01-31T19:33:09.616Z,3.10
2019-01-31T19:35:39.012Z,3.70
2019-01-31T19:38:09.118Z,3.92
2019-01-31T19:40:40.670Z,5.45
2019-01-31T19:43:09.745Z,3.20
2019-01-31T19:45:40.801Z,5.67
2019-01-31T19:48:10.118Z,2.60
2019-01-31T19:50:39.228Z,2.50
2019-01-31T19:53:08.389Z,4.70
2019-01-31T19:55:37.573Z,3.50
2019-01-31T19:58:06.979Z,6.22
2019-01-31T20:00:36.058Z,6.87
2019-01-31T20:03:06.989Z,5.25
2019-01-31T20:05:36.373Z,5.35
2019-01-31T20:08:07.070Z,4.60
2019-01-31T20:10:36.326Z,5.35
2019-01-31T20:13:05.393Z,3.35
2019-01-31T20:15:34.554Z,4.75
2019-01-31T20:18:03.677Z,4.97
2019-01-31T20:20:32.877Z,5.50
2019-01-31T20:23:01.983Z,4.80
2019-01-31T20:25:31.072Z,4.10
2019-01-31T20:28:00.145Z,5.00
2019-01-31T20:30:32.825Z,4.55
2019-01-31T20:33:02.581Z,6.12
2019-01-31T20:35:31.959Z,3.80
2019-01-31T20:38:01.653Z,5.45
2019-01-31T20:40:35.877Z,3.10
2019-01-31T20:43:05.156Z,5.62
2019-01-31T20:45:34.346Z,5.47
2019-01-31T20:48:04.656Z,5.40
2019-01-31T20:50:37.053Z,3.70
2019-01-31T20:53:07.782Z,2.87
2019-01-31T20:55:36.843Z,4.70
2019-01-31T20:58:06.303Z,4.37
2019-01-31T21:00:41.751Z,3.05
2019-01-31T21:03:10.881Z,3.90
2019-01-31T21:05:40.393Z,4.00
2019-01-31T21:08:10.421Z,3.30
2019-01-31T21:10:39.501Z,4.05
2019-01-31T21:13:08.970Z,5.60
2019-01-31T21:15:38.103Z,5.95
2019-01-31T21:18:07.889Z,3.67
2019-01-31T21:20:37.011Z,4.92
2019-01-31T21:23:06.784Z,4.50
2019-01-31T21:25:35.908Z,4.40
2019-01-31T21:28:05.040Z,3.67
2019-01-31T21:30:36.161Z,2.98
2019-01-31T21:33:05.307Z,4.30
2019-01-31T21:35:34.340Z,2.17
2019-01-31T21:38:03.479Z,5.90
2019-01-31T21:40:34.240Z,5.90
2019-01-31T21:43:03.844Z,6.05
2019-01-31T21:45:33.035Z,6.80
2019-01-31T21:48:02.126Z,6.80
2019-01-31T21:50:31.375Z,5.50
2019-01-31T21:53:00.428Z,3.07
2019-01-31T21:55:29.532Z,5.23
2019-01-31T21:57:58.537Z,3.80
2019-01-31T22:00:29.576Z,4.20
2019-01-31T22:02:58.625Z,2.15
2019-01-31T22:05:27.929Z,3.47
2019-01-31T22:07:57.119Z,4.20
2019-01-31T22:10:26.366Z,2.60
2019-01-31T22:12:55.457Z,2.30
2019-01-31T22:15:27.639Z,2.15
2019-01-31T22:18:00.023Z,4.27
2019-01-31T22:20:27.592Z,4.22
2019-01-31T22:22:56.653Z,4.30
2019-01-31T22:25:25.784Z,4.20
2019-01-31T22:27:55.117Z,3.80
2019-01-31T22:30:34.976Z,3.77
2019-01-31T22:33:03.967Z,3.43
2019-01-31T22:35:33.095Z,2.90
2019-01-31T22:38:02.222Z,2.87
2019-01-31T22:40:31.277Z,3.27
2019-01-31T22:43:00.256Z,2.87
2019-01-31T22:45:29.376Z,2.23
2019-01-31T22:47:58.388Z,1.97
2019-01-31T22:50:27.436Z,3.90
2019-01-31T22:52:56.469Z,2.97
2019-01-31T22:55:26.020Z,3.50
2019-01-31T22:57:55.115Z,3.90
2019-01-31T23:01:06.388Z,3.50
2019-01-31T23:03:35.312Z,4.00
2019-01-31T23:06:05.666Z,3.80
2019-01-31T23:08:34.766Z,3.60
2019-01-31T23:11:03.808Z,4.07
2019-01-31T23:13:32.775Z,3.40
2019-01-31T23:16:01.926Z,3.00
2019-01-31T23:18:30.898Z,2.60
2019-01-31T23:21:00.995Z,3.60
2019-01-31T23:23:30.068Z,3.58
2019-01-31T23:25:59.148Z,2.50
2019-01-31T23:28:28.183Z,2.93
2019-01-31T23:30:57.219Z,2.57
2019-01-31T23:33:26.187Z,3.50
2019-01-31T23:35:55.128Z,2.70
2019-01-31T23:38:24.140Z,3.50
2019-01-31T23:40:53.267Z,1.13
2019-01-31T23:43:22.251Z,2.97
2019-01-31T23:45:51.276Z,2.17
2019-01-31T23:48:20.328Z,3.03
2019-01-31T23:50:49.372Z,3.30
2019-01-31T23:53:18.549Z,3.47
2019-01-31T23:55:47.544Z,3.27
2019-01-31T23:58:16.686Z,3.20
